createdAt,value
2019-03-20T00:00:01.817Z,51.61
2019-03-20T00:02:31.305Z,51.74
2019-03-20T00:05:00.545Z,51.60
2019-03-20T00:07:29.790Z,51.70
2019-03-20T00:09:59.513Z,52.32
2019-03-20T00:12:28.652Z,52.22
2019-03-20T00:14:58.937Z,52.44
2019-03-20T00:17:28.651Z,52.56
2019-03-20T00:19:58.116Z,52.28
2019-03-20T00:22:28.266Z,52.57
2019-03-20T00:24:57.175Z,52.34
2019-03-20T00:27:26.334Z,52.86
2019-03-20T00:29:55.648Z,52.59
2019-03-20T00:32:24.940Z,53.19
2019-03-20T00:35:00.730Z,52.67
2019-03-20T00:37:23.544Z,53.08
2019-03-20T00:39:52.577Z,53.76
2019-03-20T00:42:21.699Z,53.49
2019-03-20T00:48:21.834Z,53.61
2019-03-20T00:50:51.072Z,54.09
2019-03-20T00:53:20.072Z,53.70
2019-03-20T00:55:49.248Z,53.57
2019-03-20T00:58:18.404Z,53.73
2019-03-20T01:00:47.497Z,53.75
2019-03-20T01:03:16.745Z,53.76
2019-03-20T01:05:46.006Z,53.84
2019-03-20T01:08:15.016Z,53.87
2019-03-20T01:10:44.474Z,54.43
2019-03-20T01:13:13.488Z,54.76
2019-03-20T01:15:42.484Z,54.23
2019-03-20T01:18:11.882Z,54.60
2019-03-20T01:20:40.987Z,54.61
2019-03-20T01:23:10.085Z,54.98
2019-03-20T01:25:39.605Z,54.79
2019-03-20T01:28:08.764Z,55.05
2019-03-20T01:30:38.313Z,55.00
2019-03-20T01:33:08.803Z,54.62
2019-03-20T01:35:38.125Z,55.13
2019-03-20T01:38:07.178Z,55.35
2019-03-20T01:40:36.280Z,55.77
2019-03-20T01:43:05.438Z,55.44
2019-03-20T01:45:34.636Z,55.82
2019-03-20T01:48:03.844Z,55.33
2019-03-20T01:50:32.971Z,55.33
2019-03-20T01:53:02.180Z,55.70
2019-03-20T01:55:31.229Z,55.18
2019-03-20T01:58:00.215Z,55.63
2019-03-20T02:00:29.280Z,55.08
2019-03-20T02:02:58.511Z,55.30
2019-03-20T02:05:35.895Z,55.25
2019-03-20T02:07:56.743Z,55.48
2019-03-20T02:10:26.081Z,55.70
2019-03-20T02:12:55.161Z,55.94
2019-03-20T02:15:23.969Z,55.79
2019-03-20T02:17:52.922Z,56.07
2019-03-20T02:20:22.160Z,56.29
2019-03-20T02:22:51.047Z,56.57
2019-03-20T02:25:20.276Z,56.21
2019-03-20T02:27:49.343Z,56.00
2019-03-20T02:30:18.686Z,56.23
2019-03-20T02:32:47.879Z,56.49
2019-03-20T02:35:17.008Z,56.39
2019-03-20T02:37:46.099Z,56.61
2019-03-20T02:40:15.187Z,56.57
2019-03-20T02:42:44.127Z,56.53
2019-03-20T02:45:13.652Z,57.30
2019-03-20T02:47:42.981Z,57.07
2019-03-20T02:50:12.038Z,56.99
2019-03-20T02:52:41.206Z,56.92
2019-03-20T02:55:10.450Z,57.06
2019-03-20T02:57:39.710Z,57.02
2019-03-20T03:00:10.700Z,57.21
2019-03-20T03:02:39.825Z,57.51
2019-03-20T03:05:09.267Z,57.37
2019-03-20T03:07:38.469Z,57.23
2019-03-20T03:10:08.091Z,58.20
2019-03-20T03:12:37.044Z,57.98
2019-03-20T03:15:06.273Z,57.44
2019-03-20T03:17:35.282Z,58.01
2019-03-20T03:20:04.857Z,58.12
2019-03-20T03:22:33.876Z,58.31
2019-03-20T03:25:03.182Z,57.78
2019-03-20T03:27:32.273Z,58.12
2019-03-20T03:30:01.175Z,58.46
2019-03-20T03:32:30.605Z,58.38
2019-03-20T03:34:59.685Z,58.54
2019-03-20T03:37:28.652Z,59.29
2019-03-20T03:39:58.052Z,58.78
2019-03-20T03:42:27.060Z,58.69
2019-03-20T03:44:56.347Z,59.21
2019-03-20T03:47:25.689Z,58.92
2019-03-20T03:49:54.811Z,58.89
2019-03-20T03:52:23.992Z,58.77
2019-03-20T03:54:53.248Z,59.12
2019-03-20T03:57:22.450Z,58.87
2019-03-20T03:59:51.409Z,59.15
2019-03-20T04:02:20.598Z,58.65
2019-03-20T04:04:49.502Z,59.63
2019-03-20T04:07:18.622Z,60.02
2019-03-20T04:09:47.604Z,59.91
2019-03-20T04:12:16.617Z,59.36
2019-03-20T04:14:45.839Z,59.73
2019-03-20T04:17:22.649Z,59.47
2019-03-20T04:19:51.867Z,60.02
2019-03-20T04:22:20.780Z,59.80
2019-03-20T04:24:49.689Z,59.80
2019-03-20T04:27:19.082Z,59.65
2019-03-20T04:29:48.382Z,59.92
2019-03-20T04:32:17.186Z,59.95
2019-03-20T04:34:46.393Z,59.69
2019-03-20T04:37:15.550Z,59.85
2019-03-20T04:39:44.741Z,59.64
2019-03-20T04:42:13.789Z,59.65
2019-03-20T04:44:42.855Z,60.68
2019-03-20T04:47:11.711Z,60.21
2019-03-20T04:49:40.668Z,59.94
2019-03-20T04:52:09.602Z,59.77
2019-03-20T04:54:38.528Z,59.51
2019-03-20T04:57:07.817Z,59.93
2019-03-20T04:59:36.697Z,60.53
2019-03-20T05:02:05.821Z,60.42
2019-03-20T05:04:34.953Z,61.65
2019-03-20T05:07:03.706Z,60.27
2019-03-20T05:09:32.905Z,60.09
2019-03-20T05:12:02.124Z,59.47
2019-03-20T05:14:31.393Z,59.39
2019-03-20T05:17:00.488Z,59.82
2019-03-20T05:19:29.590Z,60.25
2019-03-20T05:21:58.681Z,60.37
2019-03-20T05:24:27.880Z,59.93
2019-03-20T05:26:56.977Z,59.51
2019-03-20T05:29:25.867Z,59.37
2019-03-20T05:31:54.930Z,59.99
2019-03-20T05:34:24.072Z,59.57
2019-03-20T05:36:53.032Z,59.58
2019-03-20T05:39:22.089Z,59.07
2019-03-20T05:41:51.057Z,59.26
2019-03-20T05:44:20.192Z,60.29
2019-03-20T05:46:49.464Z,60.28
2019-03-20T05:49:18.528Z,60.18
2019-03-20T05:51:47.414Z,58.55
2019-03-20T05:54:16.565Z,62.88
2019-03-20T05:56:45.425Z,61.73
2019-03-20T05:59:14.787Z,58.99
2019-03-20T06:01:43.969Z,57.46
2019-03-20T06:04:13.255Z,56.77
2019-03-20T06:06:42.385Z,56.75
2019-03-20T06:09:11.668Z,56.38
2019-03-20T06:11:40.884Z,55.63
2019-03-20T06:14:09.915Z,55.87
2019-03-20T06:16:39.009Z,56.36
2019-03-20T06:19:08.109Z,56.26
2019-03-20T06:21:37.735Z,56.66
2019-03-20T06:24:06.724Z,57.43
2019-03-20T06:26:35.748Z,58.08
2019-03-20T06:29:04.817Z,57.95
2019-03-20T06:31:33.952Z,58.54
2019-03-20T06:34:03.027Z,58.06
2019-03-20T06:36:31.914Z,57.32
2019-03-20T06:39:01.294Z,57.39
2019-03-20T06:41:30.282Z,57.84
2019-03-20T06:43:59.383Z,57.26
2019-03-20T06:46:28.766Z,56.56
2019-03-20T06:48:57.984Z,56.13
2019-03-20T06:51:26.979Z,56.28
2019-03-20T06:53:56.277Z,56.17
2019-03-20T06:56:25.520Z,55.73
2019-03-20T06:59:04.248Z,56.41
2019-03-20T07:01:33.237Z,56.47
2019-03-20T07:04:17.395Z,56.60
2019-03-20T07:06:58.123Z,56.69
2019-03-20T07:09:39.340Z,56.79
2019-03-20T07:12:08.501Z,56.73
2019-03-20T07:14:37.698Z,56.39
2019-03-20T07:17:07.135Z,55.21
2019-03-20T07:19:36.293Z,55.83
2019-03-20T07:22:06.299Z,55.55
2019-03-20T07:24:35.524Z,56.26
2019-03-20T07:27:04.702Z,55.66
2019-03-20T07:29:33.864Z,55.45
2019-03-20T07:32:03.124Z,54.98
2019-03-20T07:34:32.020Z,55.22
2019-03-20T07:37:07.382Z,54.92
2019-03-20T07:39:36.653Z,55.01
2019-03-20T07:42:05.845Z,55.01
2019-03-20T07:44:34.997Z,55.02
2019-03-20T07:47:04.059Z,54.67
2019-03-20T07:49:33.056Z,54.01
2019-03-20T07:52:02.412Z,53.55
2019-03-20T07:54:31.964Z,53.97
2019-03-20T07:57:01.131Z,52.59
2019-03-20T07:59:30.383Z,51.77
2019-03-20T08:01:59.587Z,51.37
2019-03-20T08:04:28.852Z,50.09
2019-03-20T08:06:58.257Z,49.89
2019-03-20T08:09:27.608Z,50.79
2019-03-20T08:11:56.933Z,50.07
2019-03-20T08:14:26.375Z,50.03
2019-03-20T08:16:55.511Z,49.95
2019-03-20T08:19:24.820Z,49.19
2019-03-20T08:21:54.097Z,49.83
2019-03-20T08:24:23.126Z,50.28
2019-03-20T08:26:52.439Z,49.18
2019-03-20T08:29:21.586Z,48.31
2019-03-20T08:31:50.832Z,49.05
2019-03-20T08:34:19.955Z,48.23
2019-03-20T08:36:49.137Z,48.01
2019-03-20T08:39:18.404Z,48.26
2019-03-20T08:41:47.601Z,48.16
2019-03-20T08:44:16.728Z,48.23
2019-03-20T08:46:45.625Z,48.36
2019-03-20T08:49:14.731Z,47.63
2019-03-20T08:51:43.924Z,47.96
2019-03-20T08:54:13.122Z,46.94
2019-03-20T08:56:42.195Z,47.20
2019-03-20T08:59:11.198Z,46.33
2019-03-20T09:01:40.349Z,45.77
2019-03-20T09:04:09.427Z,46.12
2019-03-20T09:06:38.725Z,47.29
2019-03-20T09:09:09.222Z,46.97
2019-03-20T09:11:38.563Z,46.58
2019-03-20T09:14:07.829Z,44.62
2019-03-20T09:16:37.729Z,44.16
2019-03-20T09:19:06.984Z,44.22
2019-03-20T09:21:36.058Z,44.10
2019-03-20T09:24:04.944Z,44.85
2019-03-20T09:26:34.013Z,44.77
2019-03-20T09:29:03.126Z,43.92
2019-03-20T09:31:32.106Z,43.74
2019-03-20T09:34:01.372Z,43.35
2019-03-20T09:36:30.409Z,43.60
2019-03-20T09:38:59.514Z,44.06
2019-03-20T09:41:28.866Z,43.78
2019-03-20T09:43:57.949Z,43.40
2019-03-20T09:46:27.636Z,42.38
2019-03-20T09:48:56.817Z,41.14
2019-03-20T09:51:25.946Z,41.08
2019-03-20T09:53:55.511Z,41.45
2019-03-20T09:56:24.797Z,41.09
2019-03-20T09:58:53.876Z,40.76
2019-03-20T10:01:23.154Z,39.50
2019-03-20T10:03:52.418Z,39.28
2019-03-20T10:06:21.683Z,39.20
2019-03-20T10:08:54.250Z,40.04
2019-03-20T10:11:20.255Z,39.45
2019-03-20T10:13:49.437Z,38.48
2019-03-20T10:16:18.830Z,38.68
2019-03-20T10:18:47.826Z,38.51
2019-03-20T10:21:17.209Z,38.25
2019-03-20T10:23:46.475Z,37.40
2019-03-20T10:26:15.694Z,37.77
2019-03-20T10:28:44.704Z,37.99
2019-03-20T10:31:14.013Z,37.21
2019-03-20T10:33:43.209Z,36.52
2019-03-20T10:36:12.821Z,36.38
2019-03-20T10:38:41.985Z,36.78
2019-03-20T10:41:11.213Z,36.39
2019-03-20T10:43:40.401Z,35.07
2019-03-20T10:46:09.901Z,34.57
2019-03-20T10:48:38.821Z,35.28
2019-03-20T10:51:08.384Z,35.73
2019-03-20T10:53:37.579Z,35.33
2019-03-20T10:56:06.814Z,35.22
2019-03-20T10:58:35.934Z,35.63
2019-03-20T11:01:05.588Z,35.35
2019-03-20T11:03:35.224Z,35.12
2019-03-20T11:06:04.422Z,35.31
2019-03-20T11:08:33.359Z,35.15
2019-03-20T11:11:02.509Z,34.91
2019-03-20T11:13:31.841Z,34.79
2019-03-20T11:16:00.860Z,34.60
2019-03-20T11:18:30.458Z,34.54
2019-03-20T11:20:59.562Z,34.55
2019-03-20T11:23:28.789Z,33.59
2019-03-20T11:25:59.911Z,33.94
2019-03-20T11:28:27.015Z,33.60
2019-03-20T11:30:56.113Z,33.46
2019-03-20T11:33:25.212Z,32.92
2019-03-20T11:35:54.333Z,32.18
2019-03-20T11:38:23.522Z,32.03
2019-03-20T11:40:52.828Z,32.12
2019-03-20T11:43:22.176Z,31.71
2019-03-20T11:45:51.397Z,30.94
2019-03-20T11:48:20.500Z,30.72
2019-03-20T11:50:49.963Z,31.19
2019-03-20T11:53:18.998Z,30.94
2019-03-20T11:55:48.106Z,30.37
2019-03-20T11:58:17.418Z,30.77
2019-03-20T12:00:46.667Z,30.36
2019-03-20T12:03:15.793Z,30.87
2019-03-20T12:05:45.127Z,31.33
2019-03-20T12:08:14.279Z,31.37
2019-03-20T12:10:43.309Z,31.13
2019-03-20T12:13:12.437Z,31.01
2019-03-20T12:15:41.722Z,31.00
2019-03-20T12:18:10.919Z,30.93
2019-03-20T12:20:40.132Z,31.29
2019-03-20T12:23:09.210Z,31.29
2019-03-20T12:25:39.094Z,30.01
2019-03-20T12:28:08.452Z,30.85
2019-03-20T12:30:37.716Z,30.55
2019-03-20T12:33:07.161Z,30.81
2019-03-20T12:35:36.328Z,30.66
2019-03-20T12:38:14.449Z,30.78
2019-03-20T12:40:34.861Z,30.86
2019-03-20T12:43:04.267Z,29.62
2019-03-20T12:45:36.022Z,30.27
2019-03-20T12:48:05.522Z,29.91
2019-03-20T12:50:34.687Z,30.34
2019-03-20T12:53:03.741Z,29.63
2019-03-20T12:55:33.100Z,30.55
2019-03-20T12:58:02.239Z,30.58
2019-03-20T13:00:31.447Z,30.73
2019-03-20T13:03:00.624Z,30.33
2019-03-20T13:05:29.692Z,30.32
2019-03-20T13:08:05.504Z,30.59
2019-03-20T13:10:28.608Z,30.78
2019-03-20T13:12:57.906Z,31.22
2019-03-20T13:15:27.205Z,30.85
2019-03-20T13:17:56.585Z,30.47
2019-03-20T13:20:25.901Z,30.49
2019-03-20T13:22:57.732Z,30.84
2019-03-20T13:25:26.852Z,30.88
2019-03-20T13:27:56.060Z,31.04
2019-03-20T13:30:27.309Z,30.76
2019-03-20T13:32:56.277Z,31.14
2019-03-20T13:35:25.689Z,30.78
2019-03-20T13:37:55.238Z,31.60
2019-03-20T13:40:24.403Z,31.45
2019-03-20T13:42:53.938Z,31.13
2019-03-20T13:45:23.132Z,30.92
2019-03-20T13:47:52.402Z,30.95
2019-03-20T13:50:21.601Z,31.35
2019-03-20T13:52:50.834Z,31.56
2019-03-20T13:55:19.894Z,31.61
2019-03-20T13:57:48.776Z,30.87
2019-03-20T14:00:19.985Z,30.67
2019-03-20T14:02:49.112Z,31.10
2019-03-20T14:05:19.692Z,30.98
2019-03-20T14:07:54.357Z,31.09
2019-03-20T14:10:25.687Z,32.02
2019-03-20T14:12:53.717Z,32.16
2019-03-20T14:15:23.014Z,30.71
2019-03-20T14:17:53.767Z,30.49
2019-03-20T14:20:23.829Z,29.32
2019-03-20T14:22:53.161Z,29.79
2019-03-20T14:25:22.489Z,28.83
2019-03-20T14:27:51.809Z,28.73
2019-03-20T14:30:22.795Z,28.70
2019-03-20T14:32:52.123Z,29.03
2019-03-20T14:35:21.741Z,29.53
2019-03-20T14:37:51.008Z,29.90
2019-03-20T14:40:22.087Z,30.41
2019-03-20T14:42:54.013Z,31.95
2019-03-20T14:45:23.921Z,31.13
2019-03-20T14:47:53.117Z,31.66
2019-03-20T14:50:23.858Z,32.71
2019-03-20T14:52:53.086Z,33.46
2019-03-20T14:55:22.525Z,33.66
2019-03-20T14:57:51.586Z,33.84
2019-03-20T15:03:01.015Z,33.65
2019-03-20T15:05:30.357Z,33.78
2019-03-20T15:08:00.662Z,33.95
2019-03-20T15:10:30.703Z,34.39
2019-03-20T15:12:59.878Z,34.67
2019-03-20T15:15:35.948Z,35.17
2019-03-20T15:18:05.132Z,35.59
2019-03-20T15:20:34.922Z,35.14
2019-03-20T15:23:03.949Z,34.73
2019-03-20T15:25:33.152Z,35.63
2019-03-20T15:28:02.161Z,36.26
2019-03-20T15:30:31.386Z,36.77
2019-03-20T15:33:00.523Z,37.27
2019-03-20T15:35:29.625Z,36.83
2019-03-20T15:37:58.737Z,37.27
2019-03-20T15:40:27.777Z,38.03
2019-03-20T15:42:56.965Z,37.39
2019-03-20T15:45:25.939Z,38.28
2019-03-20T15:47:55.197Z,38.84
2019-03-20T15:50:24.406Z,38.58
2019-03-20T15:52:53.494Z,38.56
2019-03-20T15:55:25.273Z,38.67
2019-03-20T15:57:55.082Z,39.34
2019-03-20T16:00:24.060Z,39.69
2019-03-20T16:02:54.402Z,39.82
2019-03-20T16:05:23.380Z,40.20
2019-03-20T16:07:52.885Z,39.96
2019-03-20T16:10:22.293Z,40.19
2019-03-20T16:12:52.022Z,40.41
2019-03-20T16:15:21.300Z,40.91
2019-03-20T16:17:51.141Z,41.40
2019-03-20T16:20:20.188Z,41.16
2019-03-20T16:22:49.401Z,41.61
2019-03-20T16:25:18.504Z,42.05
2019-03-20T16:27:47.815Z,42.27
2019-03-20T16:30:18.948Z,42.01
2019-03-20T16:32:47.975Z,42.46
2019-03-20T16:35:17.298Z,42.31
2019-03-20T16:37:57.000Z,42.40
2019-03-20T16:40:33.331Z,43.00
2019-03-20T16:43:03.068Z,43.39
2019-03-20T16:45:32.298Z,43.43
2019-03-20T16:48:01.535Z,43.08
2019-03-20T16:50:30.659Z,43.45
2019-03-20T16:52:59.911Z,43.21
2019-03-20T16:55:28.742Z,43.71
2019-03-20T16:57:58.666Z,43.83
2019-03-20T17:00:28.435Z,44.65
2019-03-20T17:02:57.587Z,44.58
2019-03-20T17:05:26.514Z,44.96
2019-03-20T17:07:55.876Z,44.71
2019-03-20T17:10:28.754Z,44.91
2019-03-20T17:12:57.974Z,44.99
2019-03-20T17:15:27.637Z,45.42
2019-03-20T17:17:56.837Z,44.44
2019-03-20T17:20:26.118Z,44.60
2019-03-20T17:22:55.361Z,45.30
2019-03-20T17:25:24.618Z,44.97
2019-03-20T17:27:53.766Z,44.72
2019-03-20T17:30:25.862Z,44.45
2019-03-20T17:32:55.087Z,44.57
2019-03-20T17:35:24.030Z,45.42
2019-03-20T17:37:53.190Z,38.60
2019-03-20T17:40:22.213Z,38.16
2019-03-20T17:42:51.315Z,40.76
2019-03-20T17:45:20.589Z,34.39
2019-03-20T17:47:50.050Z,33.55
2019-03-20T17:50:20.904Z,34.52
2019-03-20T17:52:50.158Z,34.86
2019-03-20T17:55:19.045Z,32.18
2019-03-20T17:57:48.345Z,26.88
2019-03-20T18:00:20.853Z,26.20
2019-03-20T18:02:49.806Z,32.41
2019-03-20T18:05:18.698Z,35.29
2019-03-20T18:07:48.049Z,37.44
2019-03-20T18:10:17.121Z,38.55
2019-03-20T18:12:46.482Z,39.99
2019-03-20T18:15:15.646Z,40.88
2019-03-20T18:17:44.712Z,41.63
2019-03-20T18:20:14.170Z,42.40
2019-03-20T18:22:43.225Z,43.40
2019-03-20T18:25:12.501Z,43.95
2019-03-20T18:27:41.521Z,44.62
2019-03-20T18:30:15.200Z,44.57
2019-03-20T18:32:44.404Z,44.45
2019-03-20T18:35:13.281Z,44.42
2019-03-20T18:37:42.301Z,44.84
2019-03-20T18:40:12.720Z,45.41
2019-03-20T18:42:41.814Z,45.76
2019-03-20T18:45:11.722Z,46.08
2019-03-20T18:47:40.721Z,46.45
2019-03-20T18:50:09.907Z,46.24
2019-03-20T18:52:38.845Z,45.89
2019-03-20T18:55:08.698Z,46.29
2019-03-20T18:57:37.905Z,45.96
2019-03-20T19:00:09.811Z,46.35
2019-03-20T19:02:38.981Z,46.62
2019-03-20T19:05:10.305Z,46.75
2019-03-20T19:07:39.330Z,46.69
2019-03-20T19:10:09.496Z,46.76
2019-03-20T19:12:44.067Z,47.25
2019-03-20T19:15:14.305Z,47.88
2019-03-20T19:17:43.741Z,47.62
2019-03-20T19:20:12.911Z,47.70
2019-03-20T19:25:53.840Z,48.35
2019-03-20T19:28:23.009Z,48.83
2019-03-20T19:30:52.089Z,49.24
2019-03-20T19:33:21.749Z,48.62
2019-03-20T19:35:51.590Z,49.02
2019-03-20T19:38:34.537Z,48.98
2019-03-20T19:40:57.625Z,48.99
2019-03-20T19:43:26.681Z,48.89
2019-03-20T19:45:55.849Z,48.89
2019-03-20T19:48:25.152Z,49.35
2019-03-20T19:50:54.285Z,49.20
2019-03-20T19:53:23.705Z,49.63
2019-03-20T19:55:53.488Z,48.85
2019-03-20T19:58:22.850Z,49.79
2019-03-20T20:00:52.084Z,49.23
2019-03-20T20:03:21.273Z,49.40
2019-03-20T20:08:28.472Z,49.97
2019-03-20T20:10:57.569Z,50.27
2019-03-20T20:13:26.634Z,50.10
2019-03-20T20:15:55.920Z,50.23
2019-03-20T20:18:24.917Z,49.81
2019-03-20T20:20:54.971Z,49.57
2019-03-20T20:23:37.778Z,49.57
2019-03-20T20:26:07.066Z,49.29
2019-03-20T20:31:24.589Z,49.28
2019-03-20T20:33:53.626Z,49.80
2019-03-20T20:36:22.680Z,49.71
2019-03-20T20:38:51.934Z,50.45
2019-03-20T20:41:21.084Z,49.93
2019-03-20T20:43:50.162Z,50.64
2019-03-20T20:46:19.159Z,50.56
2019-03-20T20:48:48.342Z,50.44
2019-03-20T20:51:17.544Z,51.01
2019-03-20T20:53:47.351Z,51.37
2019-03-20T20:56:16.801Z,51.89
2019-03-20T20:58:46.069Z,52.64
2019-03-20T21:01:15.008Z,52.37
2019-03-20T21:03:44.951Z,53.00
2019-03-20T21:06:14.165Z,52.73
2019-03-20T21:08:43.230Z,52.69
2019-03-20T21:11:13.038Z,52.38
2019-03-20T21:13:42.421Z,52.67
2019-03-20T21:22:55.599Z,53.35
2019-03-20T21:29:13.445Z,53.50
2019-03-20T21:34:42.813Z,53.06
2019-03-20T21:38:22.074Z,53.31
2019-03-20T21:41:46.507Z,53.38
2019-03-20T21:44:28.992Z,53.91
2019-03-20T21:47:08.881Z,54.03
2019-03-20T21:56:01.273Z,54.10
2019-03-20T22:10:52.695Z,54.17
2019-03-20T22:16:14.803Z,54.19
2019-03-20T22:19:00.764Z,53.73
2019-03-20T22:24:36.372Z,54.49
2019-03-20T22:33:25.680Z,54.59
2019-03-20T22:40:55.776Z,54.61
2019-03-20T22:54:40.853Z,55.12
